sensor_id;sensor_type;location;lat;lon;timestamp;pressure;altitude;pressure_sealevel;temperature;humidity
63607;BME280;51327;52.466;-1.938;2022-07-29T00:00:19;100106.88;;;15.49;62.99
63607;BME280;51327;52.466;-1.938;2022-07-29T00:02:45;100067.25;;;15.29;62.99
63607;BME280;51327;52.466;-1.938;2022-07-29T00:05:12;100074.81;;;15.35;63.45
63607;BME280;51327;52.466;-1.938;2022-07-29T00:07:39;100099.03;;;15.46;63.21
63607;BME280;51327;52.466;-1.938;2022-07-29T00:10:06;100066.91;;;15.22;63.43
63607;BME280;51327;52.466;-1.938;2022-07-29T00:12:33;100072.03;;;15.25;63.49
63607;BME280;51327;52.466;-1.938;2022-07-29T00:14:59;100081.47;;;15.31;63.60
63607;BME280;51327;52.466;-1.938;2022-07-29T00:17:25;100097.94;;;15.37;63.56
63607;BME280;51327;52.466;-1.938;2022-07-29T00:19:52;100102.34;;;15.38;63.68
63607;BME280;51327;52.466;-1.938;2022-07-29T00:22:19;100036.47;;;14.99;63.64
63607;BME280;51327;52.466;-1.938;2022-07-29T00:24:47;100094.53;;;15.35;63.51
63607;BME280;51327;52.466;-1.938;2022-07-29T00:27:16;100095.50;;;15.34;63.61
63607;BME280;51327;52.466;-1.938;2022-07-29T00:29:42;100056.97;;;15.11;63.68
63607;BME280;51327;52.466;-1.938;2022-07-29T00:32:08;100060.41;;;15.13;63.86
63607;BME280;51327;52.466;-1.938;2022-07-29T00:34:35;100037.69;;;14.95;63.89
63607;BME280;51327;52.466;-1.938;2022-07-29T00:37:21;100076.56;;;15.13;64.30
63607;BME280;51327;52.466;-1.938;2022-07-29T00:39:49;100080.47;;;15.20;63.76
63607;BME280;51327;52.466;-1.938;2022-07-29T00:42:17;100057.59;;;15.03;63.96
63607;BME280;51327;52.466;-1.938;2022-07-29T00:44:43;100093.66;;;15.23;63.60
63607;BME280;51327;52.466;-1.938;2022-07-29T00:47:10;100092.81;;;15.23;64.04
63607;BME280;51327;52.466;-1.938;2022-07-29T00:49:39;100099.19;;;15.22;64.41
63607;BME280;51327;52.466;-1.938;2022-07-29T00:52:09;100084.50;;;15.15;64.60
63607;BME280;51327;52.466;-1.938;2022-07-29T00:54:38;100088.63;;;15.08;64.58
63607;BME280;51327;52.466;-1.938;2022-07-29T00:57:06;100086.84;;;15.08;64.38
63607;BME280;51327;52.466;-1.938;2022-07-29T00:59:33;100042.56;;;14.78;64.64
63607;BME280;51327;52.466;-1.938;2022-07-29T01:02:02;100078.25;;;15.03;64.31
63607;BME280;51327;52.466;-1.938;2022-07-29T01:04:30;100088.16;;;15.02;64.15
63607;BME280;51327;52.466;-1.938;2022-07-29T01:06:56;100092.31;;;15.07;64.62
63607;BME280;51327;52.466;-1.938;2022-07-29T01:09:22;100093.28;;;15.06;64.68
63607;BME280;51327;52.466;-1.938;2022-07-29T01:11:51;100097.81;;;15.05;65.17
63607;BME280;51327;52.466;-1.938;2022-07-29T01:14:20;100031.03;;;14.65;65.06
63607;BME280;51327;52.466;-1.938;2022-07-29T01:16:54;100078.97;;;14.94;65.12
63607;BME280;51327;52.466;-1.938;2022-07-29T01:25:26;100088.75;;;14.95;64.95
63607;BME280;51327;52.466;-1.938;2022-07-29T01:28:08;100081.81;;;14.92;65.14
63607;BME280;51327;52.466;-1.938;2022-07-29T01:30:41;100098.03;;;14.91;65.54
63607;BME280;51327;52.466;-1.938;2022-07-29T01:33:15;100065.50;;;14.71;65.50
63607;BME280;51327;52.466;-1.938;2022-07-29T01:36:07;100096.69;;;14.85;65.28
63607;BME280;51327;52.466;-1.938;2022-07-29T01:38:39;100083.94;;;14.76;65.13
63607;BME280;51327;52.466;-1.938;2022-07-29T01:41:09;100072.94;;;14.68;65.80
63607;BME280;51327;52.466;-1.938;2022-07-29T01:43:53;100096.19;;;14.80;66.25
63607;BME280;51327;52.466;-1.938;2022-07-29T01:46:31;100101.06;;;14.75;66.19
63607;BME280;51327;52.466;-1.938;2022-07-29T01:49:10;100080.00;;;14.57;66.59
63607;BME280;51327;52.466;-1.938;2022-07-29T01:51:46;100045.72;;;14.37;66.71
63607;BME280;51327;52.466;-1.938;2022-07-29T01:54:35;100090.88;;;14.56;66.65
63607;BME280;51327;52.466;-1.938;2022-07-29T01:57:07;100103.34;;;14.57;67.19
63607;BME280;51327;52.466;-1.938;2022-07-29T01:59:34;100100.97;;;14.52;66.92
63607;BME280;51327;52.466;-1.938;2022-07-29T02:02:00;100077.22;;;14.35;67.34
63607;BME280;51327;52.466;-1.938;2022-07-29T02:04:29;100049.81;;;14.18;67.74
63607;BME280;51327;52.466;-1.938;2022-07-29T02:07:05;100073.53;;;14.25;67.70
63607;BME280;51327;52.466;-1.938;2022-07-29T02:09:34;100092.13;;;14.39;67.92
63607;BME280;51327;52.466;-1.938;2022-07-29T02:12:05;100080.25;;;14.30;68.06
63607;BME280;51327;52.466;-1.938;2022-07-29T02:14:36;100092.47;;;14.34;68.05
63607;BME280;51327;52.466;-1.938;2022-07-29T02:17:05;100093.47;;;14.33;68.03
63607;BME280;51327;52.466;-1.938;2022-07-29T02:19:34;100051.59;;;14.07;68.01
63607;BME280;51327;52.466;-1.938;2022-07-29T02:22:05;100080.09;;;14.20;67.59
63607;BME280;51327;52.466;-1.938;2022-07-29T02:24:35;100047.53;;;14.01;68.07
63607;BME280;51327;52.466;-1.938;2022-07-29T02:27:04;100068.09;;;14.13;68.43
63607;BME280;51327;52.466;-1.938;2022-07-29T02:29:32;100064.56;;;14.13;67.78
63607;BME280;51327;52.466;-1.938;2022-07-29T02:32:00;100075.81;;;14.18;68.04
63607;BME280;51327;52.466;-1.938;2022-07-29T02:34:29;100042.41;;;13.98;68.23
63607;BME280;51327;52.466;-1.938;2022-07-29T02:36:57;100056.31;;;14.03;68.56
63607;BME280;51327;52.466;-1.938;2022-07-29T02:39:25;100097.59;;;14.26;68.81
63607;BME280;51327;52.466;-1.938;2022-07-29T02:42:06;100079.69;;;14.14;68.23
63607;BME280;51327;52.466;-1.938;2022-07-29T02:44:35;100098.31;;;14.28;68.77
63607;BME280;51327;52.466;-1.938;2022-07-29T02:47:36;100097.47;;;14.28;68.89
63607;BME280;51327;52.466;-1.938;2022-07-29T02:50:11;100061.94;;;14.00;69.23
63607;BME280;51327;52.466;-1.938;2022-07-29T02:52:45;100074.44;;;14.12;69.19
63607;BME280;51327;52.466;-1.938;2022-07-29T02:55:19;100062.34;;;14.07;69.32
63607;BME280;51327;52.466;-1.938;2022-07-29T02:57:58;100082.38;;;14.14;69.11
63607;BME280;51327;52.466;-1.938;2022-07-29T03:00:28;100087.06;;;14.23;69.34
63607;BME280;51327;52.466;-1.938;2022-07-29T03:02:58;100043.09;;;13.89;69.21
63607;BME280;51327;52.466;-1.938;2022-07-29T03:05:27;100073.72;;;14.10;68.93
63607;BME280;51327;52.466;-1.938;2022-07-29T03:07:57;100050.19;;;13.90;69.23
63607;BME280;51327;52.466;-1.938;2022-07-29T03:10:26;100052.38;;;13.96;69.27
63607;BME280;51327;52.466;-1.938;2022-07-29T03:12:55;100089.13;;;14.19;69.34
63607;BME280;51327;52.466;-1.938;2022-07-29T03:15:24;100024.47;;;13.74;69.20
63607;BME280;51327;52.466;-1.938;2022-07-29T03:18:05;100094.63;;;14.18;69.09
63607;BME280;51327;52.466;-1.938;2022-07-29T03:20:33;100098.25;;;14.17;69.44
63607;BME280;51327;52.466;-1.938;2022-07-29T03:23:01;100097.31;;;14.18;69.50
63607;BME280;51327;52.466;-1.938;2022-07-29T03:25:30;100067.06;;;14.03;69.55
63607;BME280;51327;52.466;-1.938;2022-07-29T03:27:56;100079.09;;;14.10;69.14
63607;BME280;51327;52.466;-1.938;2022-07-29T03:30:22;100083.72;;;14.08;69.49
63607;BME280;51327;52.466;-1.938;2022-07-29T03:32:50;100099.13;;;14.17;69.67
63607;BME280;51327;52.466;-1.938;2022-07-29T03:35:19;100090.19;;;14.17;69.61
63607;BME280;51327;52.466;-1.938;2022-07-29T03:37:47;100077.47;;;14.08;69.59
63607;BME280;51327;52.466;-1.938;2022-07-29T03:40:27;100059.59;;;13.95;69.67
63607;BME280;51327;52.466;-1.938;2022-07-29T03:42:55;100089.09;;;14.08;69.76
63607;BME280;51327;52.466;-1.938;2022-07-29T03:45:25;100102.03;;;14.14;69.88
63607;BME280;51327;52.466;-1.938;2022-07-29T03:48:03;100079.66;;;14.03;69.82
63607;BME280;51327;52.466;-1.938;2022-07-29T03:50:31;100108.03;;;14.18;70.04
63607;BME280;51327;52.466;-1.938;2022-07-29T03:53:01;100078.03;;;14.00;69.78
63607;BME280;51327;52.466;-1.938;2022-07-29T03:55:33;100105.34;;;14.18;70.31
63607;BME280;51327;52.466;-1.938;2022-07-29T03:58:02;100094.22;;;14.11;70.33
63607;BME280;51327;52.466;-1.938;2022-07-29T04:00:31;100053.19;;;13.85;70.28
63607;BME280;51327;52.466;-1.938;2022-07-29T04:02:59;100089.09;;;14.08;70.28
63607;BME280;51327;52.466;-1.938;2022-07-29T04:05:27;100111.38;;;14.22;70.43
63607;BME280;51327;52.466;-1.938;2022-07-29T04:07:52;100052.22;;;13.86;70.55
63607;BME280;51327;52.466;-1.938;2022-07-29T04:10:18;100081.78;;;14.10;70.81
63607;BME280;51327;52.466;-1.938;2022-07-29T04:12:46;100050.41;;;13.87;70.67
63607;BME280;51327;52.466;-1.938;2022-07-29T04:15:12;100086.00;;;14.02;70.95
63607;BME280;51327;52.466;-1.938;2022-07-29T04:17:37;100046.69;;;13.76;71.27
63607;BME280;51327;52.466;-1.938;2022-07-29T04:20:05;100104.44;;;14.06;71.23
63607;BME280;51327;52.466;-1.938;2022-07-29T04:22:33;100107.53;;;14.13;71.63
63607;BME280;51327;52.466;-1.938;2022-07-29T04:24:59;100112.66;;;14.16;71.71
63607;BME280;51327;52.466;-1.938;2022-07-29T04:27:25;100117.06;;;14.17;72.13
63607;BME280;51327;52.466;-1.938;2022-07-29T04:29:52;100085.47;;;13.96;72.02
63607;BME280;51327;52.466;-1.938;2022-07-29T04:32:20;100116.22;;;14.16;72.37
63607;BME280;51327;52.466;-1.938;2022-07-29T04:34:48;100047.66;;;13.75;72.45
63607;BME280;51327;52.466;-1.938;2022-07-29T04:37:15;100093.31;;;13.99;72.63
63607;BME280;51327;52.466;-1.938;2022-07-29T04:39:43;100070.03;;;13.87;72.66
63607;BME280;51327;52.466;-1.938;2022-07-29T04:42:10;100116.94;;;14.18;72.53
63607;BME280;51327;52.466;-1.938;2022-07-29T04:44:36;100091.47;;;14.00;73.06
63607;BME280;51327;52.466;-1.938;2022-07-29T04:47:02;100115.25;;;14.17;73.20
63607;BME280;51327;52.466;-1.938;2022-07-29T04:49:29;100101.53;;;14.09;73.36
63607;BME280;51327;52.466;-1.938;2022-07-29T04:51:57;100049.03;;;13.81;73.16
63607;BME280;51327;52.466;-1.938;2022-07-29T04:54:25;100089.78;;;13.99;73.47
63607;BME280;51327;52.466;-1.938;2022-07-29T04:56:52;100118.69;;;14.19;73.53
63607;BME280;51327;52.466;-1.938;2022-07-29T04:59:20;100083.66;;;13.97;73.63
63607;BME280;51327;52.466;-1.938;2022-07-29T05:01:46;100098.94;;;14.08;73.94
63607;BME280;51327;52.466;-1.938;2022-07-29T05:04:11;100103.13;;;14.12;74.22
63607;BME280;51327;52.466;-1.938;2022-07-29T05:06:39;100133.38;;;14.27;74.19
63607;BME280;51327;52.466;-1.938;2022-07-29T05:09:06;100082.66;;;13.98;74.30
63607;BME280;51327;52.466;-1.938;2022-07-29T05:11:34;100133.22;;;14.28;74.46
63607;BME280;51327;52.466;-1.938;2022-07-29T05:14:01;100119.63;;;14.18;74.77
63607;BME280;51327;52.466;-1.938;2022-07-29T05:16:29;100107.66;;;14.11;74.64
63607;BME280;51327;52.466;-1.938;2022-07-29T05:18:57;100128.34;;;14.22;74.81
63607;BME280;51327;52.466;-1.938;2022-07-29T05:21:24;100111.06;;;14.13;75.24
63607;BME280;51327;52.466;-1.938;2022-07-29T05:23:52;100104.44;;;14.06;75.56
63607;BME280;51327;52.466;-1.938;2022-07-29T05:26:19;100090.13;;;13.94;75.68
63607;BME280;51327;52.466;-1.938;2022-07-29T05:28:47;100096.84;;;14.00;75.78
63607;BME280;51327;52.466;-1.938;2022-07-29T05:31:15;100059.47;;;13.73;75.81
63607;BME280;51327;52.466;-1.938;2022-07-29T05:33:43;100142.63;;;14.23;76.04
63607;BME280;51327;52.466;-1.938;2022-07-29T05:36:10;100149.47;;;14.27;76.44
63607;BME280;51327;52.466;-1.938;2022-07-29T05:38:39;100130.47;;;14.17;76.37
63607;BME280;51327;52.466;-1.938;2022-07-29T05:41:07;100132.56;;;14.13;76.60
63607;BME280;51327;52.466;-1.938;2022-07-29T05:43:35;100153.88;;;14.28;76.56
63607;BME280;51327;52.466;-1.938;2022-07-29T05:46:00;100145.19;;;14.24;76.84
63607;BME280;51327;52.466;-1.938;2022-07-29T05:48:26;100149.34;;;14.28;77.00
63607;BME280;51327;52.466;-1.938;2022-07-29T05:50:54;100160.63;;;14.33;77.00
63607;BME280;51327;52.466;-1.938;2022-07-29T05:53:19;100133.16;;;14.17;77.17
63607;BME280;51327;52.466;-1.938;2022-07-29T05:55:45;100129.78;;;14.15;77.18
63607;BME280;51327;52.466;-1.938;2022-07-29T05:58:13;100155.88;;;14.37;77.51
63607;BME280;51327;52.466;-1.938;2022-07-29T06:00:40;100113.66;;;14.15;77.54
63607;BME280;51327;52.466;-1.938;2022-07-29T06:03:06;100144.28;;;14.36;77.79
63607;BME280;51327;52.466;-1.938;2022-07-29T06:05:32;100156.78;;;14.49;77.77
63607;BME280;51327;52.466;-1.938;2022-07-29T06:07:59;100162.22;;;14.60;77.79
63607;BME280;51327;52.466;-1.938;2022-07-29T06:10:27;100155.03;;;14.60;77.50
63607;BME280;51327;52.466;-1.938;2022-07-29T06:12:55;100165.94;;;14.70;77.51
63607;BME280;51327;52.466;-1.938;2022-07-29T06:15:20;100108.53;;;14.47;77.61
63607;BME280;51327;52.466;-1.938;2022-07-29T06:17:46;100128.75;;;14.64;77.43
63607;BME280;51327;52.466;-1.938;2022-07-29T06:20:15;100108.25;;;14.63;77.44
63607;BME280;51327;52.466;-1.938;2022-07-29T06:22:43;100136.16;;;14.85;76.80
63607;BME280;51327;52.466;-1.938;2022-07-29T06:25:09;100158.56;;;15.08;76.52
63607;BME280;51327;52.466;-1.938;2022-07-29T06:27:35;100138.66;;;14.99;76.33
63607;BME280;51327;52.466;-1.938;2022-07-29T06:30:03;100079.91;;;14.70;75.75
63607;BME280;51327;52.466;-1.938;2022-07-29T06:32:30;100169.72;;;15.25;76.04
63607;BME280;51327;52.466;-1.938;2022-07-29T06:34:56;100167.66;;;15.29;75.83
63607;BME280;51327;52.466;-1.938;2022-07-29T06:37:22;100171.09;;;15.31;75.78
63607;BME280;51327;52.466;-1.938;2022-07-29T06:39:49;100171.59;;;15.36;75.98
63607;BME280;51327;52.466;-1.938;2022-07-29T06:42:37;100178.69;;;15.49;76.02
63607;BME280;51327;52.466;-1.938;2022-07-29T06:45:05;100123.63;;;15.30;75.73
63607;BME280;51327;52.466;-1.938;2022-07-29T06:47:32;100154.59;;;15.47;75.58
63607;BME280;51327;52.466;-1.938;2022-07-29T06:49:58;100164.84;;;15.53;74.96
63607;BME280;51327;52.466;-1.938;2022-07-29T06:52:24;100127.19;;;15.31;74.70
63607;BME280;51327;52.466;-1.938;2022-07-29T06:54:52;100130.59;;;15.33;75.02
63607;BME280;51327;52.466;-1.938;2022-07-29T06:57:22;100164.84;;;15.53;74.95
63607;BME280;51327;52.466;-1.938;2022-07-29T06:59:49;100162.91;;;15.55;74.55
63607;BME280;51327;52.466;-1.938;2022-07-29T07:02:15;100181.19;;;15.74;74.87
63607;BME280;51327;52.466;-1.938;2022-07-29T07:04:41;100131.34;;;15.57;75.15
63607;BME280;51327;52.466;-1.938;2022-07-29T07:07:09;100180.91;;;16.00;74.29
63607;BME280;51327;52.466;-1.938;2022-07-29T07:09:37;100157.66;;;15.99;73.44
63607;BME280;51327;52.466;-1.938;2022-07-29T07:12:02;100155.91;;;16.09;73.47
63607;BME280;51327;52.466;-1.938;2022-07-29T07:14:28;100136.78;;;16.12;73.75
63607;BME280;51327;52.466;-1.938;2022-07-29T07:16:55;100171.81;;;16.56;73.05
63607;BME280;51327;52.466;-1.938;2022-07-29T07:19:23;100149.84;;;16.60;72.49
63607;BME280;51327;52.466;-1.938;2022-07-29T07:21:53;100141.94;;;16.80;71.56
63607;BME280;51327;52.466;-1.938;2022-07-29T07:24:21;100134.63;;;16.91;70.54
63607;BME280;51327;52.466;-1.938;2022-07-29T07:26:47;100131.34;;;17.09;70.28
63607;BME280;51327;52.466;-1.938;2022-07-29T07:29:12;100193.00;;;17.65;69.26
63607;BME280;51327;52.466;-1.938;2022-07-29T07:31:40;100159.47;;;17.68;68.78
63607;BME280;51327;52.466;-1.938;2022-07-29T07:34:07;100195.44;;;17.99;68.96
63607;BME280;51327;52.466;-1.938;2022-07-29T07:36:35;100191.91;;;18.08;67.82
63607;BME280;51327;52.466;-1.938;2022-07-29T07:39:03;100176.66;;;17.98;66.80
63607;BME280;51327;52.466;-1.938;2022-07-29T07:41:32;100190.91;;;18.09;67.25
63607;BME280;51327;52.466;-1.938;2022-07-29T07:44:00;100164.00;;;17.98;66.92
63607;BME280;51327;52.466;-1.938;2022-07-29T07:46:27;100141.09;;;17.83;66.95
63607;BME280;51327;52.466;-1.938;2022-07-29T07:48:55;100148.38;;;18.02;66.29
63607;BME280;51327;52.466;-1.938;2022-07-29T07:51:23;100139.44;;;18.01;66.41
63607;BME280;51327;52.466;-1.938;2022-07-29T07:53:50;100168.31;;;18.20;66.58
63607;BME280;51327;52.466;-1.938;2022-07-29T07:56:19;100162.75;;;18.12;66.00
63607;BME280;51327;52.466;-1.938;2022-07-29T07:58:47;100189.41;;;18.26;65.60
63607;BME280;51327;52.466;-1.938;2022-07-29T08:01:14;100162.03;;;18.10;65.40
63607;BME280;51327;52.466;-1.938;2022-07-29T08:03:46;100150.13;;;18.12;65.67
63607;BME280;51327;52.466;-1.938;2022-07-29T08:06:14;100126.22;;;18.08;65.05
63607;BME280;51327;52.466;-1.938;2022-07-29T08:08:41;100180.59;;;18.44;65.68
63607;BME280;51327;52.466;-1.938;2022-07-29T08:11:09;100181.59;;;18.52;64.86
63607;BME280;51327;52.466;-1.938;2022-07-29T08:13:35;100182.47;;;18.63;64.54
63607;BME280;51327;52.466;-1.938;2022-07-29T08:16:01;100162.41;;;18.65;64.58
63607;BME280;51327;52.466;-1.938;2022-07-29T08:18:30;100173.06;;;18.96;63.75
63607;BME280;51327;52.466;-1.938;2022-07-29T08:20:58;100167.50;;;19.17;63.00
63607;BME280;51327;52.466;-1.938;2022-07-29T08:23:26;100181.38;;;19.41;62.89
63607;BME280;51327;52.466;-1.938;2022-07-29T08:25:54;100173.47;;;19.68;62.09
63607;BME280;51327;52.466;-1.938;2022-07-29T08:28:22;100167.56;;;19.82;61.01
63607;BME280;51327;52.466;-1.938;2022-07-29T08:30:49;100143.38;;;19.71;60.66
63607;BME280;51327;52.466;-1.938;2022-07-29T08:33:17;100169.00;;;19.86;59.93
63607;BME280;51327;52.466;-1.938;2022-07-29T08:35:45;100155.19;;;19.79;59.69
63607;BME280;51327;52.466;-1.938;2022-07-29T08:38:13;100134.69;;;19.67;59.30
63607;BME280;51327;52.466;-1.938;2022-07-29T08:40:39;100169.63;;;19.98;59.17
63607;BME280;51327;52.466;-1.938;2022-07-29T08:43:06;100170.06;;;20.03;58.98
63607;BME280;51327;52.466;-1.938;2022-07-29T08:45:48;100166.56;;;20.11;59.43
63607;BME280;51327;52.466;-1.938;2022-07-29T08:48:20;100123.72;;;19.96;58.51
63607;BME280;51327;52.466;-1.938;2022-07-29T08:50:52;100140.63;;;20.08;58.84
63607;BME280;51327;52.466;-1.938;2022-07-29T08:53:21;100130.31;;;20.12;58.74
63607;BME280;51327;52.466;-1.938;2022-07-29T08:55:49;100119.47;;;20.12;57.03
63607;BME280;51327;52.466;-1.938;2022-07-29T08:58:17;100159.09;;;20.40;56.47
63607;BME280;51327;52.466;-1.938;2022-07-29T09:00:50;100147.41;;;20.40;57.04
63607;BME280;51327;52.466;-1.938;2022-07-29T09:03:19;100163.13;;;20.54;57.32
63607;BME280;51327;52.466;-1.938;2022-07-29T09:05:47;100137.53;;;20.39;56.92
63607;BME280;51327;52.466;-1.938;2022-07-29T09:08:16;100165.97;;;20.62;56.92
63607;BME280;51327;52.466;-1.938;2022-07-29T09:10:45;100162.84;;;20.75;56.46
63607;BME280;51327;52.466;-1.938;2022-07-29T09:13:12;100160.66;;;20.97;56.23
63607;BME280;51327;52.466;-1.938;2022-07-29T09:15:40;100152.06;;;21.10;55.43
63607;BME280;51327;52.466;-1.938;2022-07-29T09:18:06;100137.91;;;20.98;55.22
63607;BME280;51327;52.466;-1.938;2022-07-29T09:20:31;100156.50;;;21.11;54.92
63607;BME280;51327;52.466;-1.938;2022-07-29T09:23:18;100150.84;;;21.04;54.35
63607;BME280;51327;52.466;-1.938;2022-07-29T09:25:45;100165.63;;;21.01;54.59
63607;BME280;51327;52.466;-1.938;2022-07-29T09:28:15;100161.25;;;21.09;55.31
63607;BME280;51327;52.466;-1.938;2022-07-29T09:33:19;100157.03;;;21.14;52.47
63607;BME280;51327;52.466;-1.938;2022-07-29T09:36:07;100154.31;;;21.14;53.21
63607;BME280;51327;52.466;-1.938;2022-07-29T09:38:36;100144.16;;;21.16;53.34
63607;BME280;51327;52.466;-1.938;2022-07-29T09:41:04;100148.34;;;21.37;52.84
63607;BME280;51327;52.466;-1.938;2022-07-29T09:43:33;100163.72;;;21.46;52.03
63607;BME280;51327;52.466;-1.938;2022-07-29T09:46:13;100137.13;;;21.32;52.44
63607;BME280;51327;52.466;-1.938;2022-07-29T09:48:41;100153.03;;;21.44;52.12
63607;BME280;51327;52.466;-1.938;2022-07-29T09:51:20;100145.09;;;21.51;52.94
63607;BME280;51327;52.466;-1.938;2022-07-29T09:53:48;100128.88;;;21.41;51.72
63607;BME280;51327;52.466;-1.938;2022-07-29T09:56:13;100162.53;;;21.75;51.33
63607;BME280;51327;52.466;-1.938;2022-07-29T09:58:39;100153.53;;;21.74;50.62
63607;BME280;51327;52.466;-1.938;2022-07-29T10:01:07;100129.50;;;21.61;50.73
63607;BME280;51327;52.466;-1.938;2022-07-29T10:03:53;100144.34;;;21.75;50.80
63607;BME280;51327;52.466;-1.938;2022-07-29T10:06:21;100138.22;;;21.73;49.90
63607;BME280;51327;52.466;-1.938;2022-07-29T10:08:48;100155.78;;;21.87;49.32
63607;BME280;51327;52.466;-1.938;2022-07-29T10:11:17;100162.91;;;21.88;49.10
63607;BME280;51327;52.466;-1.938;2022-07-29T10:13:47;100133.47;;;21.75;49.96
63607;BME280;51327;52.466;-1.938;2022-07-29T10:16:16;100152.63;;;22.08;49.52
63607;BME280;51327;52.466;-1.938;2022-07-29T10:18:44;100112.16;;;21.97;48.02
63607;BME280;51327;52.466;-1.938;2022-07-29T10:21:12;100159.69;;;22.27;48.48
63607;BME280;51327;52.466;-1.938;2022-07-29T10:23:40;100159.88;;;22.34;47.81
63607;BME280;51327;52.466;-1.938;2022-07-29T10:26:10;100128.50;;;22.13;47.21
63607;BME280;51327;52.466;-1.938;2022-07-29T10:28:37;100171.28;;;22.45;46.32
63607;BME280;51327;52.466;-1.938;2022-07-29T10:31:06;100145.56;;;22.31;46.67
63607;BME280;51327;52.466;-1.938;2022-07-29T10:36:35;100159.22;;;22.56;46.77
63607;BME280;51327;52.466;-1.938;2022-07-29T10:39:32;100165.34;;;22.66;47.62
63607;BME280;51327;52.466;-1.938;2022-07-29T10:44:42;100167.06;;;22.76;44.89
63607;BME280;51327;52.466;-1.938;2022-07-29T10:47:24;100160.91;;;22.57;45.57
63607;BME280;51327;52.466;-1.938;2022-07-29T10:49:59;100175.72;;;22.55;45.45
63607;BME280;51327;52.466;-1.938;2022-07-29T10:52:54;100167.72;;;22.61;46.20
63607;BME280;51327;52.466;-1.938;2022-07-29T10:55:36;100166.91;;;22.85;45.88
63607;BME280;51327;52.466;-1.938;2022-07-29T10:58:15;100162.69;;;23.07;45.51
63607;BME280;51327;52.466;-1.938;2022-07-29T11:00:45;100139.53;;;23.03;45.47
63607;BME280;51327;52.466;-1.938;2022-07-29T11:06:07;100157.69;;;23.27;44.05
63607;BME280;51327;52.466;-1.938;2022-07-29T11:08:35;100155.84;;;23.20;44.36
63607;BME280;51327;52.466;-1.938;2022-07-29T11:13:52;100149.88;;;22.75;43.86
63607;BME280;51327;52.466;-1.938;2022-07-29T11:16:22;100143.41;;;22.60;45.85
63607;BME280;51327;52.466;-1.938;2022-07-29T11:21:42;100106.81;;;22.54;44.63
63607;BME280;51327;52.466;-1.938;2022-07-29T11:24:14;100143.41;;;22.84;44.37
63607;BME280;51327;52.466;-1.938;2022-07-29T11:26:42;100112.09;;;22.64;44.14
63607;BME280;51327;52.466;-1.938;2022-07-29T11:29:21;100144.25;;;22.93;44.59
63607;BME280;51327;52.466;-1.938;2022-07-29T11:31:52;100091.34;;;22.71;43.72
63607;BME280;51327;52.466;-1.938;2022-07-29T11:34:28;100116.50;;;22.98;43.44
63607;BME280;51327;52.466;-1.938;2022-07-29T11:45:01;100124.38;;;23.01;44.23
63607;BME280;51327;52.466;-1.938;2022-07-29T11:47:29;100121.09;;;23.13;44.71
63607;BME280;51327;52.466;-1.938;2022-07-29T11:49:56;100123.47;;;23.33;44.50
63607;BME280;51327;52.466;-1.938;2022-07-29T11:52:23;100104.16;;;23.51;44.39
63607;BME280;51327;52.466;-1.938;2022-07-29T11:54:51;100113.44;;;23.81;42.96
63607;BME280;51327;52.466;-1.938;2022-07-29T11:57:19;100118.00;;;23.89;43.00
63607;BME280;51327;52.466;-1.938;2022-07-29T11:59:47;100120.09;;;23.79;43.02
63607;BME280;51327;52.466;-1.938;2022-07-29T12:02:14;100070.56;;;23.50;42.89
63607;BME280;51327;52.466;-1.938;2022-07-29T12:04:53;100095.47;;;23.47;42.81
63607;BME280;51327;52.466;-1.938;2022-07-29T12:07:32;100118.47;;;23.45;43.63
63607;BME280;51327;52.466;-1.938;2022-07-29T12:09:58;100118.19;;;23.31;43.68
63607;BME280;51327;52.466;-1.938;2022-07-29T12:12:25;100120.06;;;23.31;43.91
63607;BME280;51327;52.466;-1.938;2022-07-29T12:14:53;100108.31;;;23.30;43.98
63607;BME280;51327;52.466;-1.938;2022-07-29T12:17:34;100090.94;;;23.31;43.62
63607;BME280;51327;52.466;-1.938;2022-07-29T12:20:03;100070.09;;;23.47;44.01
63607;BME280;51327;52.466;-1.938;2022-07-29T12:22:33;100111.69;;;23.88;42.99
63607;BME280;51327;52.466;-1.938;2022-07-29T12:25:12;100064.22;;;23.74;42.89
63607;BME280;51327;52.466;-1.938;2022-07-29T12:27:41;100101.00;;;24.10;42.11
63607;BME280;51327;52.466;-1.938;2022-07-29T12:30:15;100102.41;;;24.06;42.05
63607;BME280;51327;52.466;-1.938;2022-07-29T12:32:47;100077.75;;;23.91;42.39
63607;BME280;51327;52.466;-1.938;2022-07-29T12:35:17;100098.84;;;23.97;42.17
63607;BME280;51327;52.466;-1.938;2022-07-29T12:37:45;100107.06;;;23.89;41.87
63607;BME280;51327;52.466;-1.938;2022-07-29T12:40:15;100112.19;;;23.92;41.69
63607;BME280;51327;52.466;-1.938;2022-07-29T12:45:41;100090.31;;;23.61;42.89
63607;BME280;51327;52.466;-1.938;2022-07-29T12:48:10;100058.13;;;23.56;42.90
63607;BME280;51327;52.466;-1.938;2022-07-29T12:50:57;100101.00;;;24.10;42.71
63607;BME280;51327;52.466;-1.938;2022-07-29T12:53:24;100083.19;;;24.22;42.25
63607;BME280;51327;52.466;-1.938;2022-07-29T12:55:53;100100.34;;;24.62;41.83
63607;BME280;51327;52.466;-1.938;2022-07-29T12:58:37;100090.88;;;24.88;40.76
63607;BME280;51327;52.466;-1.938;2022-07-29T13:03:51;100080.69;;;24.82;40.12
63607;BME280;51327;52.466;-1.938;2022-07-29T13:09:14;100110.00;;;25.02;39.92
63607;BME280;51327;52.466;-1.938;2022-07-29T13:11:43;100092.50;;;24.97;40.27
63607;BME280;51327;52.466;-1.938;2022-07-29T13:14:34;100111.44;;;24.98;39.30
63607;BME280;51327;52.466;-1.938;2022-07-29T13:17:17;100120.81;;;24.81;39.83
63607;BME280;51327;52.466;-1.938;2022-07-29T13:19:48;100103.91;;;24.63;40.66
63607;BME280;51327;52.466;-1.938;2022-07-29T13:22:25;100120.47;;;24.61;40.63
63607;BME280;51327;52.466;-1.938;2022-07-29T13:24:58;100118.81;;;24.52;40.79
63607;BME280;51327;52.466;-1.938;2022-07-29T13:27:27;100125.19;;;24.44;40.71
63607;BME280;51327;52.466;-1.938;2022-07-29T13:29:58;100126.81;;;24.30;40.63
63607;BME280;51327;52.466;-1.938;2022-07-29T13:32:26;100089.53;;;23.91;40.63